createdAt,value
2018-02-27T00:00:38.222Z,-6.17
2018-02-27T00:01:47.907Z,-6.19
2018-02-27T00:02:57.758Z,-6.12
2018-02-27T00:04:07.941Z,-6.09
2018-02-27T00:05:17.835Z,-6.09
2018-02-27T00:06:27.995Z,-6.04
2018-02-27T00:07:38.130Z,-6.06
2018-02-27T00:08:47.742Z,-6.11
2018-02-27T00:09:57.721Z,-6.12
2018-02-27T00:11:07.843Z,-6.08
2018-02-27T00:12:17.980Z,-6.08
2018-02-27T00:13:28.133Z,-6.09
2018-02-27T00:14:38.011Z,-6.15
2018-02-27T00:15:47.871Z,-6.21
2018-02-27T00:16:58.231Z,-6.18
2018-02-27T00:18:08.389Z,-6.27
2018-02-27T00:19:18.065Z,-6.22
2018-02-27T00:20:28.203Z,-6.22
2018-02-27T00:21:38.336Z,-6.19
2018-02-27T00:22:48.467Z,-6.22
2018-02-27T00:23:58.341Z,-6.24
2018-02-27T00:25:08.222Z,-6.21
2018-02-27T00:26:18.140Z,-6.21
2018-02-27T00:27:28.401Z,-6.27
2018-02-27T00:28:38.623Z,-6.26
2018-02-27T00:29:48.740Z,-6.29
2018-02-27T00:30:58.728Z,-6.19
2018-02-27T00:32:08.959Z,-6.21
2018-02-27T00:33:18.777Z,-6.21
2018-02-27T00:34:28.885Z,-6.22
2018-02-27T00:35:38.994Z,-6.26
2018-02-27T00:36:49.022Z,-6.3
2018-02-27T00:37:59.125Z,-6.24
2018-02-27T00:39:08.986Z,-6.26
2018-02-27T00:40:18.872Z,-6.3
2018-02-27T00:41:29.076Z,-6.32
2018-02-27T00:42:39.073Z,-6.35
2018-02-27T00:43:49.256Z,-6.33
2018-02-27T00:44:59.038Z,-6.21
2018-02-27T00:46:09.462Z,-6.15
2018-02-27T00:47:19.665Z,-6.21
2018-02-27T00:48:29.999Z,-6.08
2018-02-27T00:49:40.239Z,-6.04
2018-02-27T00:50:50.159Z,-6.08
2018-02-27T00:52:00.276Z,-6.11
2018-02-27T00:53:09.991Z,-6.11
2018-02-27T00:54:20.159Z,-6.11
2018-02-27T00:55:30.280Z,-6.17
2018-02-27T00:56:40.422Z,-6.29
2018-02-27T00:57:50.061Z,-6.29
2018-02-27T00:59:00.008Z,-6.27
2018-02-27T01:00:09.920Z,-6.26
2018-02-27T01:01:20.060Z,-6.26
2018-02-27T01:02:29.919Z,-6.3
2018-02-27T01:03:40.134Z,-6.24
2018-02-27T01:04:50.260Z,-6.29
2018-02-27T01:06:00.118Z,-6.22
2018-02-27T01:07:10.457Z,-6.21
2018-02-27T01:08:20.570Z,-6.21
2018-02-27T01:09:30.709Z,-6.21
2018-02-27T01:10:40.835Z,-6.18
2018-02-27T01:11:51.390Z,-6.19
2018-02-27T01:13:01.448Z,-6.27
2018-02-27T01:14:12.006Z,-6.18
2018-02-27T01:15:22.526Z,-6.19
2018-02-27T01:16:32.627Z,-6.27
2018-02-27T01:17:42.769Z,-6.32
2018-02-27T01:18:52.944Z,-6.29
2018-02-27T01:20:03.150Z,-6.26
2018-02-27T01:21:13.282Z,-6.32
2018-02-27T01:22:23.474Z,-6.42
2018-02-27T01:23:33.707Z,-6.43
2018-02-27T01:24:44.059Z,-6.53
2018-02-27T01:25:54.444Z,-6.5
2018-02-27T01:27:04.393Z,-6.47
2018-02-27T01:28:14.580Z,-6.45
2018-02-27T01:29:24.866Z,-6.47
2018-02-27T01:30:35.114Z,-6.48
2018-02-27T01:31:45.290Z,-6.48
2018-02-27T01:32:55.532Z,-6.45
2018-02-27T01:34:05.669Z,-6.53
2018-02-27T01:35:15.888Z,-6.53
2018-02-27T01:36:25.740Z,-6.5
2018-02-27T01:37:35.616Z,-6.53
2018-02-27T01:38:45.737Z,-6.5
2018-02-27T01:39:55.877Z,-6.53
2018-02-27T01:41:06.138Z,-6.55
2018-02-27T01:42:16.344Z,-6.5
2018-02-27T01:43:26.557Z,-6.45
2018-02-27T01:44:36.699Z,-6.54
2018-02-27T01:45:47.060Z,-6.53
2018-02-27T01:46:57.242Z,-6.61
2018-02-27T01:48:07.419Z,-6.69
2018-02-27T01:49:17.604Z,-6.68
2018-02-27T01:50:27.784Z,-6.71
2018-02-27T01:51:37.385Z,-6.74
2018-02-27T01:52:47.562Z,-6.68
2018-02-27T01:53:57.608Z,-6.72
2018-02-27T01:55:07.740Z,-6.61
2018-02-27T01:56:18.006Z,-6.83
2018-02-27T01:57:27.904Z,-6.75
2018-02-27T01:58:37.888Z,-6.81
2018-02-27T01:59:47.758Z,-6.75
2018-02-27T02:00:57.886Z,-6.75
2018-02-27T02:02:08.094Z,-6.9
2018-02-27T02:03:17.715Z,-6.74
2018-02-27T02:04:27.682Z,-6.71
2018-02-27T02:05:37.174Z,-6.74
2018-02-27T02:06:47.277Z,-6.79
2018-02-27T02:07:57.460Z,-6.86
2018-02-27T02:09:07.353Z,-6.86
2018-02-27T02:10:17.295Z,-6.87
2018-02-27T02:11:27.412Z,-6.83
2018-02-27T02:12:37.651Z,-6.81
2018-02-27T02:13:48.037Z,-6.72
2018-02-27T02:14:57.928Z,-6.75
2018-02-27T02:16:07.939Z,-6.74
2018-02-27T02:17:17.797Z,-6.9
2018-02-27T02:18:27.911Z,-6.86
2018-02-27T02:19:37.825Z,-6.83
2018-02-27T02:20:47.587Z,-6.79
2018-02-27T02:21:57.690Z,-6.81
2018-02-27T02:23:07.479Z,-6.71
2018-02-27T02:24:17.540Z,-6.69
2018-02-27T02:25:27.710Z,-6.68
2018-02-27T02:26:37.924Z,-6.71
2018-02-27T02:27:48.146Z,-6.66
2018-02-27T02:28:57.929Z,-6.68
2018-02-27T02:30:07.484Z,-6.71
2018-02-27T02:31:17.618Z,-6.6
2018-02-27T02:32:27.736Z,-6.66
2018-02-27T02:33:37.888Z,-6.65
2018-02-27T02:34:48.029Z,-6.69
2018-02-27T02:35:57.942Z,-6.66
2018-02-27T02:37:07.303Z,-6.72
2018-02-27T02:38:17.299Z,-6.75
2018-02-27T02:39:27.131Z,-6.87
2018-02-27T02:40:37.237Z,-6.79
2018-02-27T02:41:47.384Z,-6.79
2018-02-27T02:42:57.500Z,-6.87
2018-02-27T02:44:07.374Z,-6.89
2018-02-27T02:45:17.554Z,-6.98
2018-02-27T02:46:28.014Z,-6.94
2018-02-27T02:47:38.214Z,-7.11
2018-02-27T02:48:48.376Z,-7.19
2018-02-27T02:49:58.267Z,-7.12
2018-02-27T02:51:08.432Z,-7.23
2018-02-27T02:52:18.542Z,-7.24
2018-02-27T02:53:28.663Z,-7.23
2018-02-27T02:54:38.829Z,-7.27
2018-02-27T02:55:48.958Z,-7.34
2018-02-27T02:56:58.640Z,-7.26
2018-02-27T02:58:08.746Z,-7.3
2018-02-27T02:59:18.877Z,-7.24
2018-02-27T03:00:28.999Z,-7.16
2018-02-27T03:01:38.864Z,-7.13
2018-02-27T03:02:48.460Z,-7.03
2018-02-27T03:03:58.378Z,-7
2018-02-27T03:05:08.538Z,-7.19
2018-02-27T03:06:18.404Z,-7.27
2018-02-27T03:07:28.161Z,-7.26
2018-02-27T03:08:37.515Z,-7.33
2018-02-27T03:09:47.310Z,-7.41
2018-02-27T03:10:57.562Z,-7.41
2018-02-27T03:12:07.379Z,-7.45
2018-02-27T03:13:18.393Z,-7.55
2018-02-27T03:14:28.786Z,-7.52
2018-02-27T03:15:38.885Z,-7.61
2018-02-27T03:16:48.613Z,-7.63
2018-02-27T03:17:57.942Z,-7.75
2018-02-27T03:19:07.547Z,-7.87
2018-02-27T03:20:17.896Z,-7.98
2018-02-27T03:21:28.075Z,-8.01
2018-02-27T03:22:38.041Z,-7.97
2018-02-27T03:23:47.887Z,-8.04
2018-02-27T03:24:57.985Z,-8.08
2018-02-27T03:26:07.574Z,-8.02
2018-02-27T03:27:18.353Z,-8.05
2018-02-27T03:28:28.108Z,-8.2
2018-02-27T03:29:38.465Z,-8.19
2018-02-27T03:30:48.449Z,-8.09
2018-02-27T03:31:58.704Z,-8.26
2018-02-27T03:33:08.864Z,-8.23
2018-02-27T03:34:19.800Z,-8.19
2018-02-27T03:35:30.545Z,-8.3
2018-02-27T03:36:41.861Z,-8.26
2018-02-27T03:37:51.984Z,-8.25
2018-02-27T03:39:01.881Z,-8.3
2018-02-27T03:40:12.003Z,-8.25
2018-02-27T03:41:22.159Z,-8.3
2018-02-27T03:42:32.037Z,-8.34
2018-02-27T03:43:42.279Z,-8.25
2018-02-27T03:44:52.935Z,-8.38
2018-02-27T03:46:03.062Z,-8.37
2018-02-27T03:47:13.491Z,-8.29
2018-02-27T03:48:23.378Z,-8.38
2018-02-27T03:49:33.501Z,-8.42
2018-02-27T03:50:43.673Z,-8.41
2018-02-27T03:51:54.050Z,-8.38
2018-02-27T03:53:04.362Z,-8.37
2018-02-27T03:54:14.251Z,-8.48
2018-02-27T03:55:24.368Z,-8.55
2018-02-27T03:56:35.111Z,-8.55
2018-02-27T03:57:45.216Z,-8.49
2018-02-27T03:58:55.053Z,-8.58
2018-02-27T04:00:05.182Z,-8.6
2018-02-27T04:01:15.314Z,-8.6
2018-02-27T04:02:25.450Z,-8.59
2018-02-27T04:03:36.963Z,-8.63
2018-02-27T04:04:47.478Z,-8.65
2018-02-27T04:05:57.631Z,-8.77
2018-02-27T04:07:07.762Z,-8.87
2018-02-27T04:08:18.040Z,-8.86
2018-02-27T04:09:28.266Z,-8.84
2018-02-27T04:10:38.640Z,-8.87
2018-02-27T04:11:48.753Z,-8.94
2018-02-27T04:12:58.692Z,-8.84
2018-02-27T04:14:08.790Z,-8.77
2018-02-27T04:15:18.642Z,-8.71
2018-02-27T04:16:28.760Z,-8.69
2018-02-27T04:17:38.980Z,-8.59
2018-02-27T04:18:48.507Z,-8.53
2018-02-27T04:19:59.039Z,-8.53
2018-02-27T04:21:09.154Z,-8.55
2018-02-27T04:22:18.488Z,-8.53
2018-02-27T04:23:28.873Z,-8.51
2018-02-27T04:24:39.146Z,-8.51
2018-02-27T04:25:49.786Z,-8.58
2018-02-27T04:26:59.670Z,-8.63
2018-02-27T04:28:09.575Z,-8.63
2018-02-27T04:29:19.680Z,-8.76
2018-02-27T04:30:30.400Z,-8.69
2018-02-27T04:31:40.419Z,-8.78
2018-02-27T04:32:50.227Z,-8.63
2018-02-27T04:34:00.582Z,-8.67
2018-02-27T04:35:10.698Z,-8.81
2018-02-27T04:36:20.899Z,-8.81
2018-02-27T04:37:30.765Z,-8.76
2018-02-27T04:38:40.685Z,-8.91
2018-02-27T04:39:50.841Z,-8.83
2018-02-27T04:41:00.977Z,-8.86
2018-02-27T04:42:11.303Z,-8.96
2018-02-27T04:43:21.451Z,-8.95
2018-02-27T04:44:31.217Z,-8.94
2018-02-27T04:45:41.326Z,-8.98
2018-02-27T04:46:51.221Z,-8.91
2018-02-27T04:48:01.103Z,-8.81
2018-02-27T04:49:11.428Z,-8.76
2018-02-27T04:50:21.345Z,-8.76
2018-02-27T04:51:31.489Z,-8.87
2018-02-27T04:52:41.336Z,-8.87
2018-02-27T04:53:51.453Z,-8.86
2018-02-27T04:55:01.567Z,-8.95
2018-02-27T04:56:12.403Z,-8.98
2018-02-27T04:57:22.515Z,-9.13
2018-02-27T04:58:32.602Z,-9.05
2018-02-27T04:59:42.517Z,-9.05
2018-02-27T05:00:52.652Z,-9.04
2018-02-27T05:02:02.493Z,-9.12
2018-02-27T05:03:12.504Z,-9.13
2018-02-27T05:04:22.739Z,-9.13
2018-02-27T05:05:32.608Z,-9.15
2018-02-27T05:06:42.764Z,-9.2
2018-02-27T05:07:53.004Z,-9.13
2018-02-27T05:09:03.180Z,-9.05
2018-02-27T05:10:13.129Z,-9.15
2018-02-27T05:11:22.712Z,-9.13
2018-02-27T05:12:32.859Z,-9.17
2018-02-27T05:13:42.771Z,-9.19
2018-02-27T05:14:52.892Z,-9.2
2018-02-27T05:16:03.022Z,-9.2
2018-02-27T05:17:13.141Z,-9.02
2018-02-27T05:18:23.288Z,-9.01
2018-02-27T05:19:33.206Z,-8.92
2018-02-27T05:20:43.376Z,-8.86
2018-02-27T05:21:53.503Z,-8.92
2018-02-27T05:23:03.384Z,-8.88
2018-02-27T05:24:13.285Z,-8.96
2018-02-27T05:25:23.097Z,-8.87
2018-02-27T05:26:33.239Z,-8.96
2018-02-27T05:27:43.116Z,-8.84
2018-02-27T05:28:53.243Z,-8.91
2018-02-27T05:30:03.365Z,-8.84
2018-02-27T05:31:13.659Z,-8.84
2018-02-27T05:32:23.232Z,-8.96
2018-02-27T05:33:33.081Z,-8.91
2018-02-27T05:34:43.359Z,-9.06
2018-02-27T05:35:53.560Z,-9.05
2018-02-27T05:37:03.673Z,-9.04
2018-02-27T05:38:13.572Z,-9.05
2018-02-27T05:39:23.451Z,-9.02
2018-02-27T05:40:33.595Z,-9.04
2018-02-27T05:41:43.756Z,-9.02
2018-02-27T05:42:53.964Z,-9.04
2018-02-27T05:44:04.122Z,-9.1
2018-02-27T05:45:14.000Z,-9.1
2018-02-27T05:46:24.135Z,-9.12
2018-02-27T05:47:34.291Z,-9.13
2018-02-27T05:48:44.464Z,-9.15
2018-02-27T05:49:54.622Z,-9.16
2018-02-27T05:51:04.820Z,-9.25
2018-02-27T05:52:14.778Z,-9.23
2018-02-27T05:53:24.899Z,-9.2
2018-02-27T05:54:35.062Z,-9.22
2018-02-27T05:55:44.343Z,-9.19
2018-02-27T05:56:54.542Z,-9.25
2018-02-27T05:58:04.679Z,-9.19
2018-02-27T05:59:14.554Z,-9.19
2018-02-27T06:00:24.753Z,-9.25
2018-02-27T06:01:34.880Z,-9.28
2018-02-27T06:02:44.812Z,-9.16
2018-02-27T06:03:54.703Z,-9.19
2018-02-27T06:05:05.104Z,-9.17
2018-02-27T06:06:14.986Z,-9.22
2018-02-27T06:07:25.239Z,-9.23
2018-02-27T06:08:35.463Z,-9.19
2018-02-27T06:09:45.325Z,-9.19
2018-02-27T06:10:55.492Z,-9.22
2018-02-27T06:12:05.165Z,-9.25
2018-02-27T06:13:15.282Z,-9.25
2018-02-27T06:14:25.509Z,-9.22
2018-02-27T06:15:35.645Z,-9.23
2018-02-27T06:16:45.811Z,-9.27
2018-02-27T06:17:56.048Z,-9.23
2018-02-27T06:19:07.271Z,-9.2
2018-02-27T06:20:17.405Z,-9.19
2018-02-27T06:21:27.513Z,-9.2
2018-02-27T06:22:37.443Z,-9.2
2018-02-27T06:23:47.763Z,-9.27
2018-02-27T06:24:57.990Z,-9.13
2018-02-27T06:26:07.838Z,-9.25
2018-02-27T06:27:17.966Z,-9.06
2018-02-27T06:28:28.132Z,-9.06
2018-02-27T06:29:38.268Z,-9.05
2018-02-27T06:30:48.630Z,-8.98
2018-02-27T06:31:58.415Z,-8.86
2018-02-27T06:33:08.608Z,-8.88
2018-02-27T06:34:18.767Z,-8.88
2018-02-27T06:35:28.626Z,-8.83
2018-02-27T06:36:38.534Z,-8.69
2018-02-27T06:37:48.171Z,-8.62
2018-02-27T06:38:58.088Z,-8.56
2018-02-27T06:40:07.974Z,-8.51
2018-02-27T06:41:17.841Z,-8.39
2018-02-27T06:42:27.992Z,-8.51
2018-02-27T06:43:38.089Z,-8.37
2018-02-27T06:44:48.193Z,-8.49
2018-02-27T06:45:58.456Z,-8.51
2018-02-27T06:47:08.358Z,-8.41
2018-02-27T06:48:19.085Z,-8.42
2018-02-27T06:49:29.324Z,-8.3
2018-02-27T06:50:40.876Z,-8.25
2018-02-27T06:51:52.270Z,-8.11
2018-02-27T06:53:02.298Z,-8.09
2018-02-27T06:54:13.148Z,-8.09
2018-02-27T06:55:23.314Z,-8.07
2018-02-27T06:56:33.484Z,-8.07
2018-02-27T06:57:43.302Z,-8.01
2018-02-27T06:58:53.726Z,-8.08
2018-02-27T07:00:04.137Z,-8.15
2018-02-27T07:01:15.374Z,-8.12
2018-02-27T07:02:27.725Z,-8.12
2018-02-27T07:03:39.079Z,-8.04
2018-02-27T07:04:51.250Z,-8.07
2018-02-27T07:06:01.520Z,-7.9
2018-02-27T07:07:12.720Z,-7.95
2018-02-27T07:08:23.514Z,-7.91
2018-02-27T07:09:35.138Z,-7.86
2018-02-27T07:10:45.888Z,-7.86
2018-02-27T07:11:56.723Z,-7.98
2018-02-27T07:13:08.750Z,-7.97
2018-02-27T07:14:18.893Z,-7.98
2018-02-27T07:15:29.270Z,-7.97
2018-02-27T07:16:40.235Z,-7.93
2018-02-27T07:17:50.835Z,-7.97
2018-02-27T07:19:00.610Z,-7.81
2018-02-27T07:20:10.792Z,-7.8
2018-02-27T07:21:21.760Z,-7.86
2018-02-27T07:22:32.468Z,-7.63
2018-02-27T07:23:43.295Z,-7.5
2018-02-27T07:24:54.354Z,-7.37
2018-02-27T07:26:04.756Z,-7.02
2018-02-27T07:27:15.127Z,-6.92
2018-02-27T07:28:27.377Z,-6.79
2018-02-27T07:29:37.472Z,-6.74
2018-02-27T07:30:47.977Z,-6.48
2018-02-27T07:31:58.158Z,-6.3
2018-02-27T07:33:08.329Z,-6.14
2018-02-27T07:34:19.188Z,-6
2018-02-27T07:35:30.837Z,-6.06
2018-02-27T07:36:40.716Z,-5.85
2018-02-27T07:37:51.515Z,-5.78
2018-02-27T07:39:02.128Z,-5.65
2018-02-27T07:40:12.953Z,-5.33
2018-02-27T07:41:23.104Z,-5.15
2018-02-27T07:42:34.770Z,-5
2018-02-27T07:43:46.189Z,-4.58
2018-02-27T07:44:56.548Z,-4.63
2018-02-27T07:46:06.721Z,-4.31
2018-02-27T07:47:17.154Z,-4.14
2018-02-27T07:48:28.013Z,-3.72
2018-02-27T07:49:38.259Z,-3.48
2018-02-27T07:50:48.220Z,-3.43
2018-02-27T07:51:58.111Z,-3.4
2018-02-27T07:53:07.766Z,-3.37
2018-02-27T07:54:17.585Z,-3.28
2018-02-27T07:55:27.723Z,-3.46
2018-02-27T07:56:37.631Z,-3.54
2018-02-27T07:57:48.156Z,-3.73
2018-02-27T07:58:58.326Z,-3.97
2018-02-27T08:00:08.121Z,-4.24
2018-02-27T08:01:18.323Z,-4.34
2018-02-27T08:02:28.462Z,-4.55
2018-02-27T08:03:38.106Z,-4.68
2018-02-27T08:04:48.289Z,-4.91
2018-02-27T08:05:58.445Z,-5.1
2018-02-27T08:07:08.611Z,-5.18
2018-02-27T08:08:18.781Z,-5.36
2018-02-27T08:09:29.162Z,-5.42
2018-02-27T08:10:39.414Z,-5.5
2018-02-27T08:11:49.578Z,-5.67
2018-02-27T08:13:00.104Z,-5.76
2018-02-27T08:14:10.261Z,-5.85
2018-02-27T08:15:20.433Z,-5.79
2018-02-27T08:16:30.219Z,-5.78
2018-02-27T08:17:40.386Z,-5.86
2018-02-27T08:18:50.554Z,-5.89
2018-02-27T08:20:00.944Z,-5.91
2018-02-27T08:21:11.416Z,-5.89
2018-02-27T08:22:21.281Z,-5.73
2018-02-27T08:23:31.185Z,-5.61
2018-02-27T08:24:41.441Z,-5.46
2018-02-27T08:25:51.312Z,-5.41
2018-02-27T08:27:01.213Z,-5.48
2018-02-27T08:28:11.299Z,-5.35
2018-02-27T08:29:21.438Z,-5.25
2018-02-27T08:30:31.818Z,-5.36
2018-02-27T08:31:41.821Z,-5.35
2018-02-27T08:32:52.023Z,-5.38
2018-02-27T08:34:01.925Z,-5.39
2018-02-27T08:35:11.812Z,-5.35
2018-02-27T08:36:21.972Z,-5.3
2018-02-27T08:37:31.842Z,-5.27
2018-02-27T08:38:41.797Z,-5.18
2018-02-27T08:39:52.003Z,-5.15
2018-02-27T08:41:02.231Z,-5.06
2018-02-27T08:42:12.417Z,-4.97
2018-02-27T08:43:22.292Z,-4.79
2018-02-27T08:44:32.422Z,-4.61
2018-02-27T08:45:42.567Z,-4.37
2018-02-27T08:46:52.808Z,-4.16
2018-02-27T08:48:03.013Z,-3.82
2018-02-27T08:49:13.216Z,-3.35
2018-02-27T08:50:23.365Z,-2.86
2018-02-27T08:51:33.528Z,-2.32
2018-02-27T08:52:43.677Z,-1.88
2018-02-27T08:53:53.687Z,-1.52
2018-02-27T08:55:03.927Z,-1.1
2018-02-27T08:56:14.298Z,-0.63
2018-02-27T08:57:24.505Z,-0.23
2018-02-27T08:58:34.690Z,-0.01
2018-02-27T08:59:44.843Z,0.09
2018-02-27T09:00:55.027Z,-0.01
2018-02-27T09:02:04.913Z,-0.22
2018-02-27T09:03:15.087Z,-0.35
2018-02-27T09:04:25.218Z,-0.43
2018-02-27T09:05:35.035Z,-0.46
2018-02-27T09:06:45.180Z,-0.23
2018-02-27T09:07:55.435Z,0.01
2018-02-27T09:09:04.758Z,0.33
2018-02-27T09:10:14.668Z,0.68
2018-02-27T09:11:24.461Z,1.11
2018-02-27T09:12:34.661Z,1.39
2018-02-27T09:13:44.939Z,1.38
2018-02-27T09:14:55.479Z,1.33
2018-02-27T09:16:05.926Z,1.5
2018-02-27T09:17:15.905Z,2.08
2018-02-27T09:18:25.773Z,2.45
2018-02-27T09:19:35.971Z,2.96
2018-02-27T09:20:46.141Z,3.37
2018-02-27T09:21:56.046Z,4.01
2018-02-27T09:23:05.918Z,4.53
2018-02-27T09:24:16.080Z,4.95
2018-02-27T09:25:26.012Z,5.32
2018-02-27T09:26:35.807Z,5.62
2018-02-27T09:27:45.974Z,6.02
2018-02-27T09:30:12.451Z,6.16
2018-02-27T09:31:22.792Z,6.06
2018-02-27T09:32:32.987Z,6.17
2018-02-27T09:33:43.160Z,6.34
2018-02-27T09:34:53.385Z,6.41
2018-02-27T09:36:03.710Z,6.06
2018-02-27T09:37:13.738Z,5.68
2018-02-27T09:38:24.078Z,5.53
2018-02-27T09:39:33.712Z,5.56
2018-02-27T09:40:43.307Z,5.46
2018-02-27T09:41:53.227Z,5.62
2018-02-27T09:43:03.425Z,5.75
2018-02-27T09:44:13.656Z,6.03
2018-02-27T09:45:23.811Z,5.96
2018-02-27T09:46:33.972Z,5.53
2018-02-27T09:47:43.911Z,5.14
2018-02-27T09:48:54.120Z,4.83
2018-02-27T09:50:04.094Z,4.43
2018-02-27T09:51:14.273Z,3.95
2018-02-27T09:52:24.772Z,3.67
2018-02-27T09:53:35.017Z,3.08
2018-02-27T09:54:45.305Z,2.94
2018-02-27T09:55:55.100Z,2.94
2018-02-27T09:57:05.523Z,2.94
2018-02-27T09:58:15.691Z,3.04
2018-02-27T09:59:26.630Z,3.18
2018-02-27T10:00:37.029Z,3.47
2018-02-27T10:01:47.964Z,3.52
2018-02-27T10:02:58.359Z,3.59
2018-02-27T10:04:09.538Z,3.52
2018-02-27T10:05:19.733Z,3.39
2018-02-27T10:06:29.510Z,3.47
2018-02-27T10:07:39.925Z,3.65
2018-02-27T10:08:49.493Z,3.9
2018-02-27T10:09:59.902Z,4.49
2018-02-27T10:11:10.430Z,5
2018-02-27T10:12:20.696Z,5.26
2018-02-27T10:13:30.652Z,5.58
2018-02-27T10:14:40.707Z,5.88
2018-02-27T10:15:50.784Z,6.06
2018-02-27T10:17:00.932Z,6.34
2018-02-27T10:18:11.315Z,6.17
2018-02-27T10:19:21.554Z,5.93
2018-02-27T10:20:31.774Z,5.84
2018-02-27T10:22:56.937Z,5.43
2018-02-27T10:24:08.229Z,4.99
2018-02-27T10:25:19.270Z,4.49
2018-02-27T10:26:32.236Z,4.2
2018-02-27T10:27:46.074Z,4.09
2018-02-27T10:30:15.032Z,3.94
2018-02-27T10:31:27.271Z,4.04
2018-02-27T10:32:37.601Z,4.03
2018-02-27T10:33:49.785Z,4.09
2018-02-27T10:35:00.222Z,4.15
2018-02-27T10:36:12.324Z,3.77
2018-02-27T10:38:37.760Z,3.19
2018-02-27T10:39:49.162Z,2.99
2018-02-27T10:42:15.519Z,2.89
2018-02-27T10:43:25.889Z,3.13
2018-02-27T10:44:36.135Z,3.39
2018-02-27T10:45:46.280Z,3.72
2018-02-27T10:46:56.458Z,3.91
2018-02-27T10:48:06.633Z,4.37
2018-02-27T10:49:17.119Z,4.81
2018-02-27T10:50:27.386Z,5.13
2018-02-27T10:51:37.862Z,5.31
2018-02-27T10:52:48.039Z,5.41
2018-02-27T10:53:58.193Z,5.5
2018-02-27T10:55:08.123Z,5.69
2018-02-27T10:56:18.321Z,5.75
2018-02-27T10:57:28.480Z,6.14
2018-02-27T10:58:38.659Z,6.14
2018-02-27T10:59:48.544Z,6.08
2018-02-27T11:00:58.769Z,5.88
2018-02-27T11:02:08.906Z,5.91
2018-02-27T11:03:18.455Z,5.99
2018-02-27T11:04:28.623Z,6.02
2018-02-27T11:05:38.853Z,6.3
2018-02-27T11:06:49.218Z,6.34
2018-02-27T11:07:59.418Z,6.45
2018-02-27T11:09:09.342Z,6.45
2018-02-27T11:10:19.509Z,6.19
2018-02-27T11:11:30.239Z,5.86
2018-02-27T11:12:41.308Z,5.74
2018-02-27T11:13:51.566Z,5.44
2018-02-27T11:15:01.832Z,5.28
2018-02-27T11:16:11.678Z,5.13
2018-02-27T11:17:22.719Z,4.93
2018-02-27T11:18:32.938Z,4.7
2018-02-27T11:19:43.574Z,4.56
2018-02-27T11:20:53.979Z,4.37
2018-02-27T11:22:04.603Z,4.19
2018-02-27T11:23:15.203Z,4.01
2018-02-27T11:24:25.454Z,3.8
2018-02-27T11:25:35.703Z,3.67
2018-02-27T11:26:46.353Z,3.5
2018-02-27T11:27:57.387Z,3.36
2018-02-27T11:29:08.111Z,3.29
2018-02-27T11:30:18.826Z,3.37
2018-02-27T11:31:29.356Z,3.49
2018-02-27T11:32:40.223Z,3.58
2018-02-27T11:33:50.844Z,3.72
2018-02-27T11:35:00.849Z,4
2018-02-27T11:36:14.057Z,4.16
2018-02-27T11:37:24.846Z,4.25
2018-02-27T11:38:35.983Z,4.52
2018-02-27T11:39:46.367Z,4.98
2018-02-27T11:40:56.977Z,5.24
2018-02-27T11:42:06.902Z,5.25
2018-02-27T11:43:16.853Z,5.46
2018-02-27T11:44:26.382Z,5.58
2018-02-27T11:45:36.952Z,5.68
2018-02-27T11:46:47.126Z,5.58
2018-02-27T11:47:57.416Z,5.43
2018-02-27T11:49:07.452Z,5.49
2018-02-27T11:50:17.497Z,5.56
2018-02-27T11:51:28.405Z,5.59
2018-02-27T11:52:38.331Z,5.68
2018-02-27T11:53:48.675Z,5.84
2018-02-27T11:54:59.230Z,6.05
2018-02-27T11:56:09.605Z,6.34
2018-02-27T11:57:19.531Z,6.48
2018-02-27T11:59:45.918Z,6.77
2018-02-27T12:01:00.496Z,6.78
2018-02-27T12:03:29.397Z,6.63
2018-02-27T12:04:39.746Z,6.63
2018-02-27T12:05:50.026Z,6.63
2018-02-27T12:07:00.897Z,6.6
2018-02-27T12:08:12.028Z,6.56
2018-02-27T12:09:24.484Z,6.64
2018-02-27T12:10:34.398Z,6.52
2018-02-27T12:11:44.861Z,6.48
2018-02-27T12:12:54.881Z,6.45
2018-02-27T12:14:05.956Z,6.21
2018-02-27T12:17:48.290Z,6.3
2018-02-27T12:18:58.567Z,6.14
2018-02-27T12:20:11.425Z,6.03
2018-02-27T12:21:24.059Z,5.86
2018-02-27T12:22:34.027Z,5.69
2018-02-27T12:23:43.325Z,5.5
2018-02-27T12:24:53.968Z,5.36
2018-02-27T12:26:04.469Z,5.62
2018-02-27T12:27:14.905Z,5.74
2018-02-27T12:28:24.823Z,5.74
2018-02-27T12:29:35.238Z,5.75
2018-02-27T12:30:45.431Z,5.75
2018-02-27T12:31:55.826Z,5.75
2018-02-27T12:33:05.964Z,5.86
2018-02-27T12:34:16.810Z,6.11
2018-02-27T12:35:27.173Z,6.09
2018-02-27T12:36:37.561Z,6.14
2018-02-27T12:37:47.547Z,6.12
2018-02-27T12:38:57.505Z,6.26
2018-02-27T12:40:07.791Z,6.34
2018-02-27T12:41:21.317Z,6.52
2018-02-27T12:42:31.427Z,6.48
2018-02-27T12:43:41.610Z,6.42
2018-02-27T12:44:52.434Z,6.21
2018-02-27T12:46:02.884Z,6.17
2018-02-27T12:47:12.808Z,6.19
2018-02-27T12:48:22.349Z,6.03
2018-02-27T12:49:32.768Z,6.01
2018-02-27T12:50:43.140Z,6.01
2018-02-27T12:51:53.297Z,6.05
2018-02-27T12:53:03.701Z,5.84
2018-02-27T12:54:14.479Z,5.69
2018-02-27T12:55:25.249Z,5.56
2018-02-27T12:56:35.931Z,5.28
2018-02-27T12:57:46.216Z,5.03
2018-02-27T12:58:56.643Z,4.8
2018-02-27T13:00:06.816Z,4.75
2018-02-27T13:01:16.329Z,4.83
2018-02-27T13:02:26.993Z,4.8
2018-02-27T13:03:37.344Z,4.81
2018-02-27T13:04:47.830Z,4.92
2018-02-27T13:05:58.456Z,5
2018-02-27T13:07:08.887Z,5.06
2018-02-27T13:08:19.178Z,5.24
2018-02-27T13:09:29.410Z,5.25
2018-02-27T13:10:39.987Z,5.47
2018-02-27T13:11:53.627Z,5.4
2018-02-27T13:13:03.905Z,5.29
2018-02-27T13:14:13.775Z,5.17
2018-02-27T13:15:23.532Z,5.25
2018-02-27T13:16:33.796Z,5.16
2018-02-27T13:17:44.429Z,4.95
2018-02-27T13:18:54.640Z,4.81
2018-02-27T13:20:04.824Z,4.63
2018-02-27T13:21:15.736Z,4.57
2018-02-27T13:22:26.536Z,4.46
2018-02-27T13:23:36.899Z,4.18
2018-02-27T13:24:47.345Z,3.98
2018-02-27T13:25:57.414Z,3.72
2018-02-27T13:27:07.643Z,3.44
2018-02-27T13:28:18.487Z,3.16
2018-02-27T13:29:29.977Z,3.06
2018-02-27T13:30:40.397Z,2.89
2018-02-27T13:31:51.339Z,2.82
2018-02-27T13:33:02.358Z,2.64
2018-02-27T13:34:12.972Z,2.51
2018-02-27T13:35:23.795Z,2.46
2018-02-27T13:36:34.197Z,2.45
2018-02-27T13:37:44.847Z,2.41
2018-02-27T13:38:55.589Z,2.45
2018-02-27T13:40:06.006Z,2.51
2018-02-27T13:41:16.667Z,2.6
2018-02-27T13:42:27.112Z,2.51
2018-02-27T13:43:37.233Z,2.37
2018-02-27T13:44:47.227Z,2.3
2018-02-27T13:45:57.515Z,2.13
2018-02-27T13:47:07.705Z,2.09
2018-02-27T13:48:17.661Z,1.97
2018-02-27T13:49:30.577Z,1.94
2018-02-27T13:50:40.790Z,1.98
2018-02-27T13:51:51.307Z,1.88
2018-02-27T13:53:01.710Z,1.82
2018-02-27T13:54:11.728Z,1.67
2018-02-27T13:55:21.936Z,1.54
2018-02-27T13:56:32.811Z,1.69
2018-02-27T13:57:42.649Z,1.47
2018-02-27T13:58:53.461Z,1.47
2018-02-27T14:00:03.849Z,1.3
2018-02-27T14:01:13.891Z,1.18
2018-02-27T14:02:24.079Z,1.02
2018-02-27T14:03:35.125Z,0.84
2018-02-27T14:04:45.625Z,0.67
2018-02-27T14:05:55.667Z,0.64
2018-02-27T14:07:06.122Z,0.6
2018-02-27T14:08:16.289Z,0.6
2018-02-27T14:09:26.942Z,0.58
2018-02-27T14:10:37.377Z,0.53
2018-02-27T14:11:47.776Z,0.46
2018-02-27T14:12:58.176Z,0.48
2018-02-27T14:14:08.420Z,0.57
2018-02-27T14:15:18.644Z,0.58
2018-02-27T14:16:28.621Z,0.5
2018-02-27T14:17:38.333Z,0.66
2018-02-27T14:18:49.269Z,0.63
2018-02-27T14:19:59.917Z,0.5
2018-02-27T14:21:10.339Z,0.54
2018-02-27T14:22:20.662Z,0.45
2018-02-27T14:23:31.496Z,0.38
2018-02-27T14:24:41.874Z,0.38
2018-02-27T14:25:52.325Z,0.27
2018-02-27T14:27:02.719Z,0.36
2018-02-27T14:28:14.132Z,0.24
2018-02-27T14:29:24.386Z,0.2
2018-02-27T14:30:35.192Z,0.2
2018-02-27T14:31:45.157Z,0.11
2018-02-27T14:32:55.075Z,0.09
2018-02-27T14:34:05.511Z,0.14
2018-02-27T14:35:17.075Z,0.22
2018-02-27T14:36:28.933Z,0.17
2018-02-27T14:37:40.208Z,0.21
2018-02-27T14:38:50.284Z,0.09
2018-02-27T14:40:02.301Z,0.11
2018-02-27T14:41:13.869Z,0.05
2018-02-27T14:42:24.467Z,0.02
2018-02-27T14:43:35.216Z,-0.07
2018-02-27T14:44:46.126Z,-0.16
2018-02-27T14:45:57.583Z,-0.06
2018-02-27T14:47:07.772Z,-0.13
2018-02-27T14:48:18.307Z,-0.16
2018-02-27T14:49:28.952Z,-0.09
2018-02-27T14:50:38.711Z,-0.02
2018-02-27T14:51:49.695Z,-0.15
2018-02-27T14:52:59.865Z,-0.07
2018-02-27T14:54:10.469Z,-0.27
2018-02-27T14:55:20.873Z,-0.27
2018-02-27T14:56:31.448Z,-0.31
2018-02-27T14:57:41.638Z,-0.41
2018-02-27T14:58:52.475Z,-0.45
2018-02-27T15:00:02.330Z,-0.53
2018-02-27T15:01:13.829Z,-0.6
2018-02-27T15:02:24.638Z,-0.73
2018-02-27T15:03:35.599Z,-0.74
2018-02-27T15:04:46.088Z,-0.82
2018-02-27T15:05:57.227Z,-0.88
2018-02-27T15:07:07.764Z,-0.95
2018-02-27T15:08:18.580Z,-0.94
2018-02-27T15:09:29.464Z,-0.96
2018-02-27T15:10:40.396Z,-0.95
2018-02-27T15:11:50.843Z,-1.02
2018-02-27T15:13:01.721Z,-1.1
2018-02-27T15:14:12.554Z,-1.06
2018-02-27T15:15:23.599Z,-1.12
2018-02-27T15:16:34.309Z,-1.18
2018-02-27T15:17:45.106Z,-1.23
2018-02-27T15:18:57.456Z,-1.26
2018-02-27T15:20:10.920Z,-1.23
2018-02-27T15:21:21.532Z,-1.25
2018-02-27T15:22:33.049Z,-1.18
2018-02-27T15:23:46.503Z,-1.12
2018-02-27T15:24:57.743Z,-1.23
2018-02-27T15:26:09.205Z,-1.23
2018-02-27T15:27:19.662Z,-1.28
2018-02-27T15:28:30.836Z,-1.25
2018-02-27T15:29:41.948Z,-1.28
2018-02-27T15:30:53.977Z,-1.28